CYYH

Taloyoak Airport

Taloyoak, Canada
METAR CYYH 240200Z 04004KT 12SM -SN VCFG OVC020 M07/M10 A2986 RMK SC8 SLP117
Observed Flight Rules
May-24 @ 02:00 UTC (13 minutes ago) Marginal Visual Flight Rules
Wind Visibility Clouds Conditions
40° at 4 knots 12 miles
  • Overcast at 2,000' AGL
  • Light Snow
  • Area Fog
Temperatures Readings
Current -7°C / 19°F
Dewpoint -10°C / 14°F
Humidity 79%
Altimeter 29.86" Hg
Pressure 1011.7 hPa
Elevation 28
METAR CYYH 240200Z 04004KT 12SM -SN VCFG OVC020 M07/M10 A2986 RMK SC8 SLP117
Observed Flight Rules
May-24 @ 02:00 UTC
(13 minutes ago)
MVFR
Wind Visibility
40° at 4 knots 12 miles
Clouds
  • Overcast at 2,000' AGL
Conditions
  • Light Snow
  • Area Fog
Temperature Dewpoint
-7°C / 19°F -10°C / 14°F
Humidity Altimeter Pressure
79% 29.86" Hg 1011.7 hPa